Time,TemperatureF,DewpointF,PressureIn,WindDirection,WindDirectionDegrees,WindSpeedMPH,WindSpeedGustMPH,Humidity,HourlyPrecipIn,Conditions,Clouds,dailyrainin,SoftwareType,DateUTC
2013-04-06 00:09:00,29.3,19.0,30.06,NNW,337,0.0,0.0,65,0.00,,,0.00,Wunderground v.1.15,2013-04-06 04:09:00,
2013-04-06 00:14:00,29.3,19.3,30.06,NNW,345,0.0,0.0,66,0.00,,,0.00,Wunderground v.1.15,2013-04-06 04:14:00,
2013-04-06 00:24:00,29.1,19.5,30.06,NW,325,0.0,0.0,67,0.00,,,0.00,Wunderground v.1.15,2013-04-06 04:24:00,
2013-04-06 00:29:00,29.1,19.5,30.06,North,349,0.0,0.0,67,0.00,,,0.00,Wunderground v.1.15,2013-04-06 04:29:00,
2013-04-06 00:39:00,29.0,19.8,30.07,North,360,0.0,0.0,68,0.00,,,0.00,Wunderground v.1.15,2013-04-06 04:39:00,
2013-04-06 00:49:00,28.7,19.8,30.07,NNE,13,0.0,0.0,69,0.00,,,0.00,Wunderground v.1.15,2013-04-06 04:49:00,
2013-04-06 00:59:00,28.5,20.3,30.07,NE,49,0.0,0.0,71,0.00,,,0.00,Wunderground v.1.15,2013-04-06 04:59:00,
2013-04-06 01:09:00,28.4,20.5,30.08,NW,322,0.0,0.0,72,0.00,,,0.00,Wunderground v.1.15,2013-04-06 05:09:00,
2013-04-06 01:14:00,28.4,20.5,30.08,NE,52,0.0,0.0,72,0.00,,,0.00,Wunderground v.1.15,2013-04-06 05:14:00,
2013-04-06 01:24:00,28.4,20.8,30.08,NE,39,0.0,0.0,73,0.00,,,0.00,Wunderground v.1.15,2013-04-06 05:24:00,
2013-04-06 01:34:00,28.2,21.3,30.09,ENE,66,0.0,0.0,75,0.00,,,0.00,Wunderground v.1.15,2013-04-06 05:34:00,
2013-04-06 01:45:00,28.1,21.2,30.09,NE,46,0.0,0.0,75,0.00,,,0.00,Wunderground v.1.15,2013-04-06 05:45:00,
2013-04-06 01:54:00,27.9,21.3,30.10,NE,41,0.0,0.0,76,0.00,,,0.00,Wunderground v.1.15,2013-04-06 05:54:00,
2013-04-06 01:59:00,27.9,21.3,30.10,NE,46,0.0,0.0,76,0.00,,,0.00,Wunderground v.1.15,2013-04-06 05:59:00,
2013-04-06 02:05:00,27.8,21.5,30.10,NNE,27,0.0,0.0,77,0.00,,,0.00,Wunderground v.1.15,2013-04-06 06:05:00,
2013-04-06 02:14:00,27.6,21.3,30.10,NE,44,0.0,0.0,77,0.00,,,0.00,Wunderground v.1.15,2013-04-06 06:14:00,
2013-04-06 02:24:00,27.5,21.5,30.10,NW,317,0.0,0.0,78,0.00,,,0.00,Wunderground v.1.15,2013-04-06 06:24:00,
2013-04-06 02:29:00,27.5,21.5,30.10,NE,40,0.0,0.0,78,0.00,,,0.00,Wunderground v.1.15,2013-04-06 06:29:00,
2013-04-06 02:39:00,27.3,21.6,30.11,NE,51,0.0,0.0,79,0.00,,,0.00,Wunderground v.1.15,2013-04-06 06:39:00,
2013-04-06 02:49:00,27.3,21.6,30.12,NE,46,0.0,0.0,79,0.00,,,0.00,Wunderground v.1.15,2013-04-06 06:49:00,
2013-04-06 02:59:00,27.2,21.5,30.12,NE,40,0.0,0.0,79,0.00,,,0.00,Wunderground v.1.15,2013-04-06 06:59:00,
2013-04-06 03:09:00,27.0,21.4,30.12,NE,34,0.0,0.0,79,0.00,,,0.00,Wunderground v.1.15,2013-04-06 07:09:00,
2013-04-06 03:19:00,26.9,21.3,30.13,NE,46,0.0,0.0,79,0.00,,,0.00,Wunderground v.1.15,2013-04-06 07:19:00,
2013-04-06 03:24:00,26.7,21.4,30.13,NNE,27,0.0,0.0,80,0.00,,,0.00,Wunderground v.1.15,2013-04-06 07:24:00,
2013-04-06 03:39:00,26.4,21.4,30.13,ENE,59,0.0,0.0,81,0.00,,,0.00,Wunderground v.1.15,2013-04-06 07:39:00,
2013-04-06 03:54:00,26.4,21.4,30.14,NE,49,0.0,0.0,81,0.00,,,0.00,Wunderground v.1.15,2013-04-06 07:54:00,
2013-04-06 04:04:00,26.4,21.4,30.15,NE,49,0.0,0.0,81,0.00,,,0.00,Wunderground v.1.15,2013-04-06 08:04:00,
2013-04-06 04:14:00,26.3,21.3,30.15,NE,48,0.0,0.0,81,0.00,,,0.00,Wunderground v.1.15,2013-04-06 08:14:00,
2013-04-06 04:24:00,26.1,21.1,30.16,NE,48,0.0,0.0,81,0.00,,,0.00,Wunderground v.1.15,2013-04-06 08:24:00,
2013-04-06 04:34:00,26.0,21.0,30.16,NE,48,0.0,0.0,81,0.00,,,0.00,Wunderground v.1.15,2013-04-06 08:34:00,
2013-04-06 04:44:00,25.8,21.1,30.16,NE,48,0.0,0.0,82,0.00,,,0.00,Wunderground v.1.15,2013-04-06 08:44:00,
2013-04-06 04:49:00,25.8,21.1,30.17,NE,48,0.0,0.0,82,0.00,,,0.00,Wunderground v.1.15,2013-04-06 08:49:00,
2013-04-06 04:59:00,25.6,20.9,30.17,NE,48,0.0,0.0,82,0.00,,,0.00,Wunderground v.1.15,2013-04-06 08:59:00,
2013-04-06 05:14:00,25.3,20.9,30.17,NE,48,0.0,0.0,83,0.00,,,0.00,Wunderground v.1.15,2013-04-06 09:14:00,
2013-04-06 05:19:00,25.3,20.9,30.17,NE,48,0.0,0.0,83,0.00,,,0.00,Wunderground v.1.15,2013-04-06 09:19:00,
2013-04-06 05:29:00,25.1,20.4,30.17,NE,48,0.0,0.0,82,0.00,,,0.00,Wunderground v.1.15,2013-04-06 09:29:00,
2013-04-06 05:39:00,25.0,20.3,30.18,NE,48,0.0,0.0,82,0.00,,,0.00,Wunderground v.1.15,2013-04-06 09:39:00,
2013-04-06 05:44:00,24.7,20.0,30.18,NE,48,0.0,0.0,82,0.00,,,0.00,Wunderground v.1.15,2013-04-06 09:44:00,
2013-04-06 05:54:00,24.4,20.0,30.19,NE,48,0.0,0.0,83,0.00,,,0.00,Wunderground v.1.15,2013-04-06 09:54:00,
2013-04-06 06:09:00,23.6,19.2,30.19,NE,48,0.0,0.0,83,0.00,,,0.00,Wunderground v.1.15,2013-04-06 10:09:00,
2013-04-06 06:14:00,23.5,19.4,30.19,NE,48,0.0,0.0,84,0.00,,,0.00,Wunderground v.1.15,2013-04-06 10:14:00,
2013-04-06 06:24:00,23.3,19.2,30.20,NE,48,0.0,0.0,84,0.00,,,0.00,Wunderground v.1.15,2013-04-06 10:24:00,
2013-04-06 06:34:00,22.9,19.1,30.21,NE,48,0.0,0.0,85,0.00,,,0.00,Wunderground v.1.15,2013-04-06 10:34:00,
2013-04-06 06:44:00,22.9,19.1,30.21,NE,48,0.0,0.0,85,0.00,,,0.00,Wunderground v.1.15,2013-04-06 10:44:00,
2013-04-06 06:54:00,22.7,19.1,30.22,NE,48,0.0,0.0,86,0.00,,,0.00,Wunderground v.1.15,2013-04-06 10:54:00,
2013-04-06 07:04:00,22.7,19.1,30.22,NE,48,0.0,0.0,86,0.00,,,0.00,Wunderground v.1.15,2013-04-06 11:04:00,
2013-04-06 07:14:00,23.2,19.9,30.22,NE,48,0.0,0.0,87,0.00,,,0.00,Wunderground v.1.15,2013-04-06 11:14:00,
2013-04-06 07:24:00,23.9,20.6,30.22,NE,48,0.0,0.0,87,0.00,,,0.00,Wunderground v.1.15,2013-04-06 11:24:00,
2013-04-06 07:29:00,24.2,20.6,30.22,NE,48,0.0,0.0,86,0.00,,,0.00,Wunderground v.1.15,2013-04-06 11:29:00,
2013-04-06 07:34:00,24.5,20.9,30.23,NE,48,0.0,0.0,86,0.00,,,0.00,Wunderground v.1.15,2013-04-06 11:34:00,
2013-04-06 07:39:00,25.0,21.1,30.23,NE,48,0.0,0.0,85,0.00,,,0.00,Wunderground v.1.15,2013-04-06 11:39:00,
2013-04-06 07:49:00,25.7,21.3,30.23,NE,48,0.0,0.0,83,0.00,,,0.00,Wunderground v.1.15,2013-04-06 11:49:00,
2013-04-06 08:09:00,27.0,21.1,30.24,ENE,69,0.0,0.0,78,0.00,,,0.00,Wunderground v.1.15,2013-04-06 12:09:00,
2013-04-06 08:19:00,27.3,20.1,30.25,NE,44,0.0,0.0,74,0.00,,,0.00,Wunderground v.1.15,2013-04-06 12:19:00,
2013-04-06 08:29:00,28.1,19.9,30.25,NE,52,0.0,0.0,71,0.00,,,0.00,Wunderground v.1.15,2013-04-06 12:29:00,
2013-04-06 08:39:00,28.7,19.1,30.25,ENE,60,0.0,0.0,67,0.00,,,0.00,Wunderground v.1.15,2013-04-06 12:39:00,
2013-04-06 08:49:00,29.1,18.8,30.26,ENE,60,0.0,0.0,65,0.00,,,0.00,Wunderground v.1.15,2013-04-06 12:49:00,
2013-04-06 08:59:00,29.3,18.3,30.26,ENE,58,0.0,0.0,63,0.00,,,0.00,Wunderground v.1.15,2013-04-06 12:59:00,
2013-04-06 09:04:00,29.5,16.9,30.27,NE,52,0.0,0.0,59,0.00,,,0.00,Wunderground v.1.15,2013-04-06 13:04:00,
2013-04-06 09:14:00,30.0,16.2,30.27,ENE,74,0.0,0.0,56,0.00,,,0.00,Wunderground v.1.15,2013-04-06 13:14:00,
2013-04-06 09:19:00,29.7,12.8,30.27,NE,56,0.0,0.0,49,0.00,,,0.00,Wunderground v.1.15,2013-04-06 13:19:00,
2013-04-06 09:29:00,30.6,15.0,30.27,ENE,59,0.0,0.0,52,0.00,,,0.00,Wunderground v.1.15,2013-04-06 13:29:00,
2013-04-06 09:39:00,30.4,13.0,30.27,ENE,59,0.0,0.0,48,0.00,,,0.00,Wunderground v.1.15,2013-04-06 13:39:00,
2013-04-06 09:44:00,30.7,13.3,30.27,NE,54,0.0,0.0,48,0.00,,,0.00,Wunderground v.1.15,2013-04-06 13:44:00,
2013-04-06 09:54:00,30.7,14.2,30.27,NE,54,0.0,0.0,50,0.00,,,0.00,Wunderground v.1.15,2013-04-06 13:54:00,
2013-04-06 10:04:00,31.0,12.6,30.27,NE,47,0.0,0.0,46,0.00,,,0.00,Wunderground v.1.15,2013-04-06 14:04:00,
2013-04-06 10:14:00,31.5,13.6,30.27,ENE,57,0.0,0.0,47,0.00,,,0.00,Wunderground v.1.15,2013-04-06 14:14:00,
2013-04-06 10:24:00,31.6,12.7,30.28,NNE,30,0.0,0.0,45,0.00,,,0.00,Wunderground v.1.15,2013-04-06 14:24:00,
2013-04-06 10:34:00,31.5,12.6,30.28,NNE,27,0.0,0.0,45,0.00,,,0.00,Wunderground v.1.15,2013-04-06 14:34:00,
2013-04-06 10:44:00,31.6,13.2,30.28,ENE,62,0.0,0.0,46,0.00,,,0.00,Wunderground v.1.15,2013-04-06 14:44:00,
2013-04-06 10:59:00,32.8,14.3,30.29,ENE,69,0.0,0.0,46,0.00,,,0.00,Wunderground v.1.15,2013-04-06 14:59:00,
2013-04-06 11:04:00,32.9,14.4,30.28,ENE,68,0.0,0.0,46,0.00,,,0.00,Wunderground v.1.15,2013-04-06 15:04:00,
2013-04-06 11:14:00,32.9,13.3,30.28,NNE,32,0.0,0.0,44,0.00,,,0.00,Wunderground v.1.15,2013-04-06 15:14:00,
2013-04-06 11:24:00,33.1,14.5,30.28,NE,50,0.0,0.0,46,0.00,,,0.00,Wunderground v.1.15,2013-04-06 15:24:00,
2013-04-06 11:34:00,33.5,12.8,30.29,ENE,60,0.0,0.0,42,0.00,,,0.00,Wunderground v.1.15,2013-04-06 15:34:00,
2013-04-06 11:39:00,33.5,14.4,30.29,ENE,59,0.0,0.0,45,0.00,,,0.00,Wunderground v.1.15,2013-04-06 15:39:00,
2013-04-06 11:49:00,34.0,13.8,30.28,NNE,19,0.0,0.0,43,0.00,,,0.00,Wunderground v.1.15,2013-04-06 15:49:00,
2013-04-06 11:54:00,34.4,12.5,30.28,ENE,66,0.0,0.0,40,0.00,,,0.00,Wunderground v.1.15,2013-04-06 15:54:00,
2013-04-06 12:04:00,34.6,13.3,30.27,NNE,30,0.0,0.0,41,0.00,,,0.00,Wunderground v.1.15,2013-04-06 16:04:00,
2013-04-06 12:14:00,34.9,15.2,30.27,ENE,64,0.0,0.0,44,0.00,,,0.00,Wunderground v.1.15,2013-04-06 16:14:00,
2013-04-06 12:24:00,34.9,13.0,30.27,NE,38,0.0,0.0,40,0.00,,,0.00,Wunderground v.1.15,2013-04-06 16:24:00,
2013-04-06 12:34:00,35.5,14.6,30.27,NW,324,0.0,0.0,42,0.00,,,0.00,Wunderground v.1.15,2013-04-06 16:34:00,
2013-04-06 12:49:00,36.3,14.8,30.26,West,259,0.0,0.0,41,0.00,,,0.00,Wunderground v.1.15,2013-04-06 16:49:00,
2013-04-06 12:59:00,37.0,15.5,30.26,NE,51,0.0,0.0,41,0.00,,,0.00,Wunderground v.1.15,2013-04-06 16:59:00,
2013-04-06 13:04:00,37.0,13.7,30.26,ENE,63,0.0,0.0,38,0.00,,,0.00,Wunderground v.1.15,2013-04-06 17:04:00,
2013-04-06 13:14:00,36.9,14.2,30.26,East,87,0.0,0.0,39,0.00,,,0.00,Wunderground v.1.15,2013-04-06 17:14:00,
2013-04-06 13:24:00,38.0,14.0,30.26,ENE,65,0.0,0.0,37,0.00,,,0.00,Wunderground v.1.15,2013-04-06 17:24:00,
2013-04-06 13:34:00,38.3,13.6,30.25,ENE,74,0.0,0.0,36,0.00,,,0.00,Wunderground v.1.15,2013-04-06 17:34:00,
2013-04-06 13:44:00,38.0,15.8,30.25,NE,41,0.0,0.0,40,0.00,,,0.00,Wunderground v.1.15,2013-04-06 17:44:00,
2013-04-06 13:49:00,38.3,13.6,30.25,NNE,15,0.0,0.0,36,0.00,,,0.00,Wunderground v.1.15,2013-04-06 17:49:00,
2013-04-06 14:05:00,38.6,12.6,30.25,East,82,0.0,0.0,34,0.00,,,0.00,Wunderground v.1.15,2013-04-06 18:05:00,
2013-04-06 14:14:00,38.8,12.1,30.25,NE,55,0.0,0.0,33,0.00,,,0.00,Wunderground v.1.15,2013-04-06 18:14:00,
2013-04-06 14:24:00,39.6,11.4,30.24,West,262,0.0,0.0,31,0.00,,,0.00,Wunderground v.1.15,2013-04-06 18:24:00,
2013-04-06 14:39:00,39.5,12.0,30.24,WSW,244,0.0,0.0,32,0.00,,,0.00,Wunderground v.1.15,2013-04-06 18:39:00,
2013-04-06 14:49:00,40.1,15.9,30.24,SW,223,0.0,0.0,37,0.00,,,0.00,Wunderground v.1.15,2013-04-06 18:49:00,
2013-04-06 14:54:00,40.5,15.6,30.24,SSE,167,0.0,0.0,36,0.00,,,0.00,Wunderground v.1.15,2013-04-06 18:54:00,
2013-04-06 15:04:00,40.6,15.0,30.22,NW,320,0.0,0.0,35,0.00,,,0.00,Wunderground v.1.15,2013-04-06 19:04:00,
2013-04-06 15:14:00,40.5,14.3,30.22,NW,319,0.0,0.0,34,0.00,,,0.00,Wunderground v.1.15,2013-04-06 19:14:00,
2013-04-06 15:19:00,40.9,14.6,30.22,West,263,0.0,0.0,34,0.00,,,0.00,Wunderground v.1.15,2013-04-06 19:19:00,
2013-04-06 15:29:00,41.1,13.4,30.22,NNE,32,0.0,0.0,32,0.00,,,0.00,Wunderground v.1.15,2013-04-06 19:29:00,
2013-04-06 15:34:00,41.8,17.4,30.21,NW,315,0.0,0.0,37,0.00,,,0.00,Wunderground v.1.15,2013-04-06 19:34:00,
2013-04-06 15:44:00,41.3,12.9,30.21,SSW,205,0.0,0.0,31,0.00,,,0.00,Wunderground v.1.15,2013-04-06 19:44:00,
2013-04-06 15:54:00,41.6,12.4,30.20,SSW,202,0.0,0.0,30,0.00,,,0.00,Wunderground v.1.15,2013-04-06 19:54:00,
2013-04-06 16:04:00,42.3,12.3,30.20,ENE,61,0.0,0.0,29,0.00,,,0.00,Wunderground v.1.15,2013-04-06 20:04:00,
2013-04-06 16:19:00,42.8,11.9,30.19,SSW,201,0.0,0.0,28,0.00,,,0.00,Wunderground v.1.15,2013-04-06 20:19:00,
2013-04-06 16:29:00,43.1,15.2,30.19,WSW,238,0.0,0.0,32,0.00,,,0.00,Wunderground v.1.15,2013-04-06 20:29:00,
2013-04-06 16:34:00,43.5,13.3,30.18,South,183,0.0,0.0,29,0.00,,,0.00,Wunderground v.1.15,2013-04-06 20:34:00,
2013-04-06 16:44:00,44.3,13.2,30.18,WSW,240,0.0,0.0,28,0.00,,,0.00,Wunderground v.1.15,2013-04-06 20:44:00,
2013-04-06 16:49:00,43.9,12.8,30.17,SW,233,0.0,0.0,28,0.00,,,0.00,Wunderground v.1.15,2013-04-06 20:49:00,
2013-04-06 16:54:00,43.9,12.8,30.17,SW,230,0.0,0.0,28,0.00,,,0.00,Wunderground v.1.15,2013-04-06 20:54:00,
2013-04-06 17:04:00,44.1,12.2,30.16,South,177,0.0,0.0,27,0.00,,,0.00,Wunderground v.1.15,2013-04-06 21:04:00,
2013-04-06 17:14:00,44.5,13.4,30.16,South,179,0.0,0.0,28,0.00,,,0.00,Wunderground v.1.15,2013-04-06 21:14:00,
2013-04-06 17:24:00,44.8,11.1,30.16,SW,236,0.0,0.0,25,0.00,,,0.00,Wunderground v.1.15,2013-04-06 21:24:00,
2013-04-06 17:39:00,45.4,12.5,30.16,South,173,0.0,0.0,26,0.00,,,0.00,Wunderground v.1.15,2013-04-06 21:39:00,
2013-04-06 17:49:00,45.4,10.7,30.16,WSW,250,0.0,0.0,24,0.00,,,0.00,Wunderground v.1.15,2013-04-06 21:49:00,
2013-04-06 17:54:00,45.4,11.6,30.16,WSW,244,0.0,0.0,25,0.00,,,0.00,Wunderground v.1.15,2013-04-06 21:54:00,
2013-04-06 18:04:00,45.4,11.6,30.16,WSW,242,0.0,0.0,25,0.00,,,0.00,Wunderground v.1.15,2013-04-06 22:04:00,
2013-04-06 18:19:00,45.4,9.7,30.15,South,186,0.0,0.0,23,0.00,,,0.00,Wunderground v.1.15,2013-04-06 22:19:00,
2013-04-06 18:29:00,45.2,8.5,30.15,South,188,0.0,0.0,22,0.00,,,0.00,Wunderground v.1.15,2013-04-06 22:29:00,
2013-04-06 18:39:00,45.1,11.3,30.15,SW,216,0.0,0.0,25,0.00,,,0.00,Wunderground v.1.15,2013-04-06 22:39:00,
2013-04-06 18:44:00,44.9,10.2,30.15,SW,216,0.0,0.0,24,0.00,,,0.00,Wunderground v.1.15,2013-04-06 22:44:00,
2013-04-06 18:54:00,44.8,11.9,30.15,SSW,207,0.0,0.0,26,0.00,,,0.00,Wunderground v.1.15,2013-04-06 22:54:00,
2013-04-06 18:59:00,44.6,10.9,30.15,SSW,207,0.0,0.0,25,0.00,,,0.00,Wunderground v.1.15,2013-04-06 22:59:00,
2013-04-06 19:04:00,44.5,12.5,30.15,SSW,201,0.0,0.0,27,0.00,,,0.00,Wunderground v.1.15,2013-04-06 23:04:00,
2013-04-06 19:14:00,44.2,13.1,30.15,South,173,0.0,0.0,28,0.00,,,0.00,Wunderground v.1.15,2013-04-06 23:14:00,
2013-04-06 19:34:00,43.8,12.8,30.14,SSE,166,0.0,0.0,28,0.00,,,0.00,Wunderground v.1.15,2013-04-06 23:34:00,
2013-04-06 19:44:00,43.5,13.3,30.14,SSE,168,0.0,0.0,29,0.00,,,0.00,Wunderground v.1.15,2013-04-06 23:44:00,
2013-04-06 19:49:00,43.3,12.3,30.14,SSE,168,0.0,0.0,28,0.00,,,0.00,Wunderground v.1.15,2013-04-06 23:49:00,
2013-04-06 19:59:00,42.8,15.6,30.14,South,188,0.0,0.0,33,0.00,,,0.00,Wunderground v.1.15,2013-04-06 23:59:00,
2013-04-06 20:04:00,42.8,14.9,30.14,SSW,198,0.0,0.0,32,0.00,,,0.00,Wunderground v.1.15,2013-04-07 00:04:00,
2013-04-06 20:14:00,42.6,14.8,30.14,SSW,192,0.0,0.0,32,0.00,,,0.00,Wunderground v.1.15,2013-04-07 00:14:00,
2013-04-06 20:29:00,42.5,12.4,30.14,South,171,0.0,0.0,29,0.00,,,0.00,Wunderground v.1.15,2013-04-07 00:29:00,
2013-04-06 20:39:00,42.5,13.2,30.14,South,178,0.0,0.0,30,0.00,,,0.00,Wunderground v.1.15,2013-04-07 00:39:00,
2013-04-06 20:49:00,42.1,13.6,30.13,South,178,0.0,0.0,31,0.00,,,0.00,Wunderground v.1.15,2013-04-07 00:49:00,
2013-04-06 20:59:00,42.1,14.3,30.13,South,186,0.0,0.0,32,0.00,,,0.00,Wunderground v.1.15,2013-04-07 00:59:00,
2013-04-06 21:04:00,42.1,13.6,30.13,SSW,202,0.0,0.0,31,0.00,,,0.00,Wunderground v.1.15,2013-04-07 01:04:00,
2013-04-06 21:14:00,41.8,14.1,30.13,SW,236,0.0,0.0,32,0.00,,,0.00,Wunderground v.1.15,2013-04-07 01:14:00,
2013-04-06 21:24:00,41.8,13.3,30.13,South,180,0.0,0.0,31,0.00,,,0.00,Wunderground v.1.15,2013-04-07 01:24:00,
2013-04-06 21:29:00,41.8,12.6,30.13,SSW,192,0.0,0.0,30,0.00,,,0.00,Wunderground v.1.15,2013-04-07 01:29:00,
2013-04-06 21:39:00,41.9,12.7,30.12,South,184,0.0,0.0,30,0.00,,,0.00,Wunderground v.1.15,2013-04-07 01:39:00,
2013-04-06 21:49:00,41.9,13.4,30.12,South,180,0.0,0.0,31,0.00,,,0.00,Wunderground v.1.15,2013-04-07 01:49:00,
2013-04-06 21:59:00,41.9,14.1,30.12,SSW,193,0.0,0.0,32,0.00,,,0.00,Wunderground v.1.15,2013-04-07 01:59:00,
2013-04-06 22:04:00,41.8,14.1,30.11,South,189,0.0,0.0,32,0.00,,,0.00,Wunderground v.1.15,2013-04-07 02:04:00,
2013-04-06 22:19:00,41.5,14.5,30.11,SSW,199,0.0,0.0,33,0.00,,,0.00,Wunderground v.1.15,2013-04-07 02:19:00,
2013-04-06 22:34:00,41.6,15.3,30.10,SSW,205,0.0,0.0,34,0.00,,,0.00,Wunderground v.1.15,2013-04-07 02:34:00,
2013-04-06 22:39:00,42.1,14.3,30.10,SW,227,0.0,0.0,32,0.00,,,0.00,Wunderground v.1.15,2013-04-07 02:39:00,
2013-04-06 22:49:00,42.5,15.4,30.10,SSW,202,0.0,0.0,33,0.00,,,0.00,Wunderground v.1.15,2013-04-07 02:49:00,
2013-04-06 22:59:00,42.8,14.2,30.10,SSW,196,0.0,0.0,31,0.00,,,0.00,Wunderground v.1.15,2013-04-07 02:59:00,
2013-04-06 23:04:00,42.9,15.0,30.08,SSW,198,0.0,0.0,32,0.00,,,0.00,Wunderground v.1.15,2013-04-07 03:04:00,
2013-04-06 23:19:00,43.2,14.6,30.09,SW,217,0.0,0.0,31,0.00,,,0.00,Wunderground v.1.15,2013-04-07 03:19:00,
2013-04-06 23:34:00,43.3,15.4,30.08,SSW,202,0.0,0.0,32,0.00,,,0.00,Wunderground v.1.15,2013-04-07 03:34:00,
2013-04-06 23:39:00,43.6,14.2,30.08,SSW,200,0.0,0.0,30,0.00,,,0.00,Wunderground v.1.15,2013-04-07 03:39:00,
2013-04-06 23:49:00,43.8,15.1,30.06,SSW,205,0.0,0.0,31,0.00,,,0.00,Wunderground v.1.15,2013-04-07 03:49:00,
2013-04-06 23:59:00,43.9,14.4,30.06,SSW,202,0.0,0.0,30,0.00,,,0.00,Wunderground v.1.15,2013-04-07 03:59:00,